sensor_id;sensor_type;location;lat;lon;timestamp;P1;durP1;ratioP1;P2;durP2;ratioP2
18887;SDS011;9576;47.792;9.628;2022-08-19T00:00:59;24.73;;;12.20;;
18887;SDS011;9576;47.792;9.628;2022-08-19T00:04:03;16.88;;;11.35;;
18887;SDS011;9576;47.792;9.628;2022-08-19T00:07:08;29.25;;;11.65;;
18887;SDS011;9576;47.792;9.628;2022-08-19T00:10:11;15.70;;;11.55;;
18887;SDS011;9576;47.792;9.628;2022-08-19T00:13:14;26.05;;;11.02;;
18887;SDS011;9576;47.792;9.628;2022-08-19T00:16:17;17.35;;;11.57;;
18887;SDS011;9576;47.792;9.628;2022-08-19T00:19:22;20.23;;;11.25;;
18887;SDS011;9576;47.792;9.628;2022-08-19T00:22:25;20.83;;;12.32;;
18887;SDS011;9576;47.792;9.628;2022-08-19T00:25:28;17.20;;;10.85;;
18887;SDS011;9576;47.792;9.628;2022-08-19T00:28:30;14.30;;;9.98;;
18887;SDS011;9576;47.792;9.628;2022-08-19T00:31:33;16.92;;;10.85;;
18887;SDS011;9576;47.792;9.628;2022-08-19T00:34:36;15.77;;;11.20;;
18887;SDS011;9576;47.792;9.628;2022-08-19T00:37:39;16.60;;;11.27;;
18887;SDS011;9576;47.792;9.628;2022-08-19T00:40:43;20.25;;;12.70;;
18887;SDS011;9576;47.792;9.628;2022-08-19T00:43:56;19.08;;;11.80;;
18887;SDS011;9576;47.792;9.628;2022-08-19T00:46:59;25.52;;;13.23;;
18887;SDS011;9576;47.792;9.628;2022-08-19T00:50:03;23.83;;;14.10;;
18887;SDS011;9576;47.792;9.628;2022-08-19T00:53:08;22.27;;;14.02;;
18887;SDS011;9576;47.792;9.628;2022-08-19T00:56:12;20.38;;;12.98;;
18887;SDS011;9576;47.792;9.628;2022-08-19T00:59:15;20.77;;;13.95;;
18887;SDS011;9576;47.792;9.628;2022-08-19T01:02:19;22.92;;;13.75;;
18887;SDS011;9576;47.792;9.628;2022-08-19T01:05:23;29.60;;;15.02;;
18887;SDS011;9576;47.792;9.628;2022-08-19T01:08:28;36.88;;;14.93;;
18887;SDS011;9576;47.792;9.628;2022-08-19T01:11:31;18.90;;;13.20;;
18887;SDS011;9576;47.792;9.628;2022-08-19T01:14:36;21.45;;;13.52;;
18887;SDS011;9576;47.792;9.628;2022-08-19T01:17:41;21.38;;;14.45;;
18887;SDS011;9576;47.792;9.628;2022-08-19T01:20:45;27.02;;;13.85;;
18887;SDS011;9576;47.792;9.628;2022-08-19T01:23:49;22.88;;;15.15;;
18887;SDS011;9576;47.792;9.628;2022-08-19T01:26:51;24.55;;;15.48;;
18887;SDS011;9576;47.792;9.628;2022-08-19T01:29:54;22.88;;;14.93;;
18887;SDS011;9576;47.792;9.628;2022-08-19T01:32:57;17.52;;;12.95;;
18887;SDS011;9576;47.792;9.628;2022-08-19T01:36:03;22.10;;;13.48;;
18887;SDS011;9576;47.792;9.628;2022-08-19T01:39:10;22.30;;;14.70;;
18887;SDS011;9576;47.792;9.628;2022-08-19T01:42:15;21.63;;;14.48;;
18887;SDS011;9576;47.792;9.628;2022-08-19T01:45:17;28.38;;;15.45;;
18887;SDS011;9576;47.792;9.628;2022-08-19T01:48:20;30.05;;;17.35;;
18887;SDS011;9576;47.792;9.628;2022-08-19T01:51:22;21.00;;;14.75;;
18887;SDS011;9576;47.792;9.628;2022-08-19T01:54:26;21.50;;;14.35;;
18887;SDS011;9576;47.792;9.628;2022-08-19T01:57:29;23.83;;;14.88;;
18887;SDS011;9576;47.792;9.628;2022-08-19T02:00:31;23.35;;;16.23;;
18887;SDS011;9576;47.792;9.628;2022-08-19T02:03:34;25.35;;;14.85;;
18887;SDS011;9576;47.792;9.628;2022-08-19T02:06:36;28.35;;;16.65;;
18887;SDS011;9576;47.792;9.628;2022-08-19T02:09:40;21.65;;;14.88;;
18887;SDS011;9576;47.792;9.628;2022-08-19T02:12:42;20.77;;;14.63;;
18887;SDS011;9576;47.792;9.628;2022-08-19T02:15:45;22.77;;;14.82;;
18887;SDS011;9576;47.792;9.628;2022-08-19T02:18:47;30.48;;;15.15;;
18887;SDS011;9576;47.792;9.628;2022-08-19T02:21:50;23.45;;;15.35;;
18887;SDS011;9576;47.792;9.628;2022-08-19T02:24:54;31.58;;;16.25;;
18887;SDS011;9576;47.792;9.628;2022-08-19T02:27:56;28.17;;;16.90;;
18887;SDS011;9576;47.792;9.628;2022-08-19T02:30:58;25.60;;;17.40;;
18887;SDS011;9576;47.792;9.628;2022-08-19T02:34:02;29.27;;;18.02;;
18887;SDS011;9576;47.792;9.628;2022-08-19T02:37:04;24.73;;;17.80;;
18887;SDS011;9576;47.792;9.628;2022-08-19T02:40:28;32.05;;;17.00;;
18887;SDS011;9576;47.792;9.628;2022-08-19T02:43:33;29.30;;;17.17;;
18887;SDS011;9576;47.792;9.628;2022-08-19T02:46:36;28.67;;;18.77;;
18887;SDS011;9576;47.792;9.628;2022-08-19T02:49:38;27.92;;;18.40;;
18887;SDS011;9576;47.792;9.628;2022-08-19T02:52:40;30.30;;;17.73;;
18887;SDS011;9576;47.792;9.628;2022-08-19T02:55:44;32.47;;;18.80;;
18887;SDS011;9576;47.792;9.628;2022-08-19T02:58:47;24.00;;;17.30;;
18887;SDS011;9576;47.792;9.628;2022-08-19T03:01:50;29.60;;;17.33;;
18887;SDS011;9576;47.792;9.628;2022-08-19T03:04:52;26.90;;;17.27;;
18887;SDS011;9576;47.792;9.628;2022-08-19T03:07:54;30.13;;;18.02;;
18887;SDS011;9576;47.792;9.628;2022-08-19T03:10:57;34.55;;;20.58;;
18887;SDS011;9576;47.792;9.628;2022-08-19T03:14:00;28.02;;;16.33;;
18887;SDS011;9576;47.792;9.628;2022-08-19T03:17:04;29.30;;;17.35;;
18887;SDS011;9576;47.792;9.628;2022-08-19T03:20:07;29.58;;;19.42;;
18887;SDS011;9576;47.792;9.628;2022-08-19T03:23:10;30.25;;;17.52;;
18887;SDS011;9576;47.792;9.628;2022-08-19T03:26:14;25.80;;;17.52;;
18887;SDS011;9576;47.792;9.628;2022-08-19T03:29:17;27.75;;;17.73;;
18887;SDS011;9576;47.792;9.628;2022-08-19T03:32:20;26.00;;;17.38;;
18887;SDS011;9576;47.792;9.628;2022-08-19T03:35:23;27.58;;;17.38;;
18887;SDS011;9576;47.792;9.628;2022-08-19T03:38:25;29.80;;;17.33;;
18887;SDS011;9576;47.792;9.628;2022-08-19T03:41:29;32.22;;;18.33;;
18887;SDS011;9576;47.792;9.628;2022-08-19T03:44:32;27.90;;;18.60;;
18887;SDS011;9576;47.792;9.628;2022-08-19T03:47:36;34.95;;;18.75;;
18887;SDS011;9576;47.792;9.628;2022-08-19T03:50:38;29.15;;;17.45;;
18887;SDS011;9576;47.792;9.628;2022-08-19T03:53:41;25.48;;;17.05;;
18887;SDS011;9576;47.792;9.628;2022-08-19T03:56:45;26.00;;;17.23;;
18887;SDS011;9576;47.792;9.628;2022-08-19T03:59:48;31.10;;;17.65;;
18887;SDS011;9576;47.792;9.628;2022-08-19T04:02:50;28.23;;;16.23;;
18887;SDS011;9576;47.792;9.628;2022-08-19T04:05:53;24.20;;;16.92;;
18887;SDS011;9576;47.792;9.628;2022-08-19T04:08:56;31.80;;;17.65;;
18887;SDS011;9576;47.792;9.628;2022-08-19T04:12:01;34.17;;;18.33;;
18887;SDS011;9576;47.792;9.628;2022-08-19T04:15:05;28.88;;;17.58;;
18887;SDS011;9576;47.792;9.628;2022-08-19T04:18:08;33.70;;;17.70;;
18887;SDS011;9576;47.792;9.628;2022-08-19T04:21:15;28.15;;;17.38;;
18887;SDS011;9576;47.792;9.628;2022-08-19T04:24:19;30.50;;;18.33;;
18887;SDS011;9576;47.792;9.628;2022-08-19T04:27:23;28.75;;;17.13;;
18887;SDS011;9576;47.792;9.628;2022-08-19T04:30:25;29.63;;;17.17;;
18887;SDS011;9576;47.792;9.628;2022-08-19T04:33:27;30.33;;;18.38;;
18887;SDS011;9576;47.792;9.628;2022-08-19T04:36:30;30.85;;;18.73;;
18887;SDS011;9576;47.792;9.628;2022-08-19T04:39:33;29.73;;;18.87;;
18887;SDS011;9576;47.792;9.628;2022-08-19T04:42:54;28.90;;;18.92;;
18887;SDS011;9576;47.792;9.628;2022-08-19T04:45:57;32.80;;;18.05;;
18887;SDS011;9576;47.792;9.628;2022-08-19T04:49:00;31.55;;;18.83;;
18887;SDS011;9576;47.792;9.628;2022-08-19T04:52:04;30.88;;;19.55;;
18887;SDS011;9576;47.792;9.628;2022-08-19T04:55:08;38.13;;;18.70;;
18887;SDS011;9576;47.792;9.628;2022-08-19T04:58:12;30.92;;;19.02;;
18887;SDS011;9576;47.792;9.628;2022-08-19T05:01:18;30.08;;;19.15;;
18887;SDS011;9576;47.792;9.628;2022-08-19T05:04:21;33.28;;;18.42;;
18887;SDS011;9576;47.792;9.628;2022-08-19T05:07:23;28.55;;;18.02;;
18887;SDS011;9576;47.792;9.628;2022-08-19T05:10:26;35.53;;;20.83;;
18887;SDS011;9576;47.792;9.628;2022-08-19T05:13:29;36.63;;;20.40;;
18887;SDS011;9576;47.792;9.628;2022-08-19T05:16:31;36.53;;;18.65;;
18887;SDS011;9576;47.792;9.628;2022-08-19T05:19:34;39.38;;;19.55;;
18887;SDS011;9576;47.792;9.628;2022-08-19T05:22:53;32.33;;;19.77;;
18887;SDS011;9576;47.792;9.628;2022-08-19T05:25:55;29.30;;;17.75;;
18887;SDS011;9576;47.792;9.628;2022-08-19T05:28:59;34.30;;;17.25;;
18887;SDS011;9576;47.792;9.628;2022-08-19T05:32:02;31.45;;;17.75;;
18887;SDS011;9576;47.792;9.628;2022-08-19T05:35:08;41.65;;;18.23;;
18887;SDS011;9576;47.792;9.628;2022-08-19T05:38:11;28.45;;;17.92;;
18887;SDS011;9576;47.792;9.628;2022-08-19T05:41:14;34.03;;;17.67;;
18887;SDS011;9576;47.792;9.628;2022-08-19T05:44:18;32.08;;;19.63;;
18887;SDS011;9576;47.792;9.628;2022-08-19T05:47:21;34.25;;;19.13;;
18887;SDS011;9576;47.792;9.628;2022-08-19T05:50:24;34.25;;;19.20;;
18887;SDS011;9576;47.792;9.628;2022-08-19T05:53:26;34.65;;;19.98;;
18887;SDS011;9576;47.792;9.628;2022-08-19T05:56:28;31.35;;;19.50;;
18887;SDS011;9576;47.792;9.628;2022-08-19T05:59:33;35.33;;;20.30;;
18887;SDS011;9576;47.792;9.628;2022-08-19T06:02:35;32.63;;;19.52;;
18887;SDS011;9576;47.792;9.628;2022-08-19T06:05:38;39.72;;;19.27;;
18887;SDS011;9576;47.792;9.628;2022-08-19T06:08:40;37.08;;;21.23;;
18887;SDS011;9576;47.792;9.628;2022-08-19T06:14:49;36.00;;;21.35;;
18887;SDS011;9576;47.792;9.628;2022-08-19T06:17:52;39.28;;;21.42;;
18887;SDS011;9576;47.792;9.628;2022-08-19T06:20:55;45.83;;;22.55;;
18887;SDS011;9576;47.792;9.628;2022-08-19T06:23:57;41.15;;;21.55;;
18887;SDS011;9576;47.792;9.628;2022-08-19T06:27:00;41.58;;;22.75;;
18887;SDS011;9576;47.792;9.628;2022-08-19T06:30:04;40.50;;;22.40;;
18887;SDS011;9576;47.792;9.628;2022-08-19T06:36:15;38.78;;;21.17;;
18887;SDS011;9576;47.792;9.628;2022-08-19T06:39:19;39.75;;;22.50;;
18887;SDS011;9576;47.792;9.628;2022-08-19T06:42:24;45.90;;;23.80;;
18887;SDS011;9576;47.792;9.628;2022-08-19T06:45:27;45.38;;;24.25;;
18887;SDS011;9576;47.792;9.628;2022-08-19T06:48:30;40.80;;;23.70;;
18887;SDS011;9576;47.792;9.628;2022-08-19T06:51:32;45.83;;;24.38;;
18887;SDS011;9576;47.792;9.628;2022-08-19T06:54:34;40.25;;;23.17;;
18887;SDS011;9576;47.792;9.628;2022-08-19T06:57:37;40.40;;;21.58;;
18887;SDS011;9576;47.792;9.628;2022-08-19T07:00:40;41.97;;;23.02;;
18887;SDS011;9576;47.792;9.628;2022-08-19T07:03:42;45.58;;;22.52;;
18887;SDS011;9576;47.792;9.628;2022-08-19T07:06:46;42.45;;;22.85;;
18887;SDS011;9576;47.792;9.628;2022-08-19T07:09:50;41.20;;;22.45;;
18887;SDS011;9576;47.792;9.628;2022-08-19T07:12:53;42.63;;;23.27;;
18887;SDS011;9576;47.792;9.628;2022-08-19T07:15:57;51.60;;;26.17;;
18887;SDS011;9576;47.792;9.628;2022-08-19T07:18:59;43.13;;;24.05;;
18887;SDS011;9576;47.792;9.628;2022-08-19T07:22:02;43.60;;;22.63;;
18887;SDS011;9576;47.792;9.628;2022-08-19T07:25:07;50.67;;;26.30;;
18887;SDS011;9576;47.792;9.628;2022-08-19T07:28:10;48.08;;;24.13;;
18887;SDS011;9576;47.792;9.628;2022-08-19T07:31:14;50.00;;;25.73;;
18887;SDS011;9576;47.792;9.628;2022-08-19T07:34:18;46.78;;;26.75;;
18887;SDS011;9576;47.792;9.628;2022-08-19T07:37:20;44.33;;;26.33;;
18887;SDS011;9576;47.792;9.628;2022-08-19T07:40:22;51.85;;;26.83;;
18887;SDS011;9576;47.792;9.628;2022-08-19T07:43:25;58.60;;;28.75;;
18887;SDS011;9576;47.792;9.628;2022-08-19T07:46:28;58.65;;;27.02;;
18887;SDS011;9576;47.792;9.628;2022-08-19T07:49:31;54.63;;;29.90;;
18887;SDS011;9576;47.792;9.628;2022-08-19T07:52:33;53.75;;;27.70;;
18887;SDS011;9576;47.792;9.628;2022-08-19T07:55:38;55.08;;;27.35;;
18887;SDS011;9576;47.792;9.628;2022-08-19T07:58:41;54.75;;;28.73;;
18887;SDS011;9576;47.792;9.628;2022-08-19T08:01:47;55.38;;;29.73;;
18887;SDS011;9576;47.792;9.628;2022-08-19T08:04:50;54.33;;;28.58;;
18887;SDS011;9576;47.792;9.628;2022-08-19T08:08:09;57.97;;;28.23;;
18887;SDS011;9576;47.792;9.628;2022-08-19T08:11:37;57.53;;;29.60;;
18887;SDS011;9576;47.792;9.628;2022-08-19T08:14:42;55.05;;;29.42;;
18887;SDS011;9576;47.792;9.628;2022-08-19T08:17:48;56.20;;;27.23;;
18887;SDS011;9576;47.792;9.628;2022-08-19T08:20:50;54.00;;;29.95;;
18887;SDS011;9576;47.792;9.628;2022-08-19T08:23:52;68.57;;;31.80;;
18887;SDS011;9576;47.792;9.628;2022-08-19T08:26:56;56.17;;;28.83;;
18887;SDS011;9576;47.792;9.628;2022-08-19T08:29:59;59.17;;;29.33;;
18887;SDS011;9576;47.792;9.628;2022-08-19T08:33:02;59.22;;;28.38;;
18887;SDS011;9576;47.792;9.628;2022-08-19T08:36:05;51.67;;;28.13;;
18887;SDS011;9576;47.792;9.628;2022-08-19T08:39:08;53.85;;;28.30;;
18887;SDS011;9576;47.792;9.628;2022-08-19T08:42:12;61.08;;;30.52;;
18887;SDS011;9576;47.792;9.628;2022-08-19T08:45:22;57.08;;;28.98;;
18887;SDS011;9576;47.792;9.628;2022-08-19T08:48:30;57.88;;;26.42;;
18887;SDS011;9576;47.792;9.628;2022-08-19T08:51:38;62.30;;;29.77;;
18887;SDS011;9576;47.792;9.628;2022-08-19T08:54:44;60.50;;;30.65;;
18887;SDS011;9576;47.792;9.628;2022-08-19T08:57:51;62.30;;;32.38;;
18887;SDS011;9576;47.792;9.628;2022-08-19T09:00:56;63.13;;;31.63;;
18887;SDS011;9576;47.792;9.628;2022-08-19T09:04:00;62.97;;;31.67;;
18887;SDS011;9576;47.792;9.628;2022-08-19T09:10:29;68.20;;;31.23;;
18887;SDS011;9576;47.792;9.628;2022-08-19T09:13:41;63.90;;;31.63;;
18887;SDS011;9576;47.792;9.628;2022-08-19T09:16:52;69.28;;;34.45;;
18887;SDS011;9576;47.792;9.628;2022-08-19T09:19:56;68.80;;;32.90;;
18887;SDS011;9576;47.792;9.628;2022-08-19T09:23:01;57.90;;;31.13;;
18887;SDS011;9576;47.792;9.628;2022-08-19T09:26:06;73.55;;;34.08;;
18887;SDS011;9576;47.792;9.628;2022-08-19T09:29:10;70.03;;;34.00;;
18887;SDS011;9576;47.792;9.628;2022-08-19T09:32:12;67.32;;;33.60;;
18887;SDS011;9576;47.792;9.628;2022-08-19T09:35:15;56.40;;;32.67;;
18887;SDS011;9576;47.792;9.628;2022-08-19T09:38:17;72.85;;;33.45;;
18887;SDS011;9576;47.792;9.628;2022-08-19T09:41:20;69.43;;;31.30;;
18887;SDS011;9576;47.792;9.628;2022-08-19T09:44:24;59.95;;;31.13;;
18887;SDS011;9576;47.792;9.628;2022-08-19T09:47:26;54.75;;;31.75;;
18887;SDS011;9576;47.792;9.628;2022-08-19T09:50:30;62.85;;;31.83;;
18887;SDS011;9576;47.792;9.628;2022-08-19T09:53:35;58.33;;;29.85;;
18887;SDS011;9576;47.792;9.628;2022-08-19T09:56:38;56.15;;;28.42;;
18887;SDS011;9576;47.792;9.628;2022-08-19T09:59:41;52.45;;;27.60;;
18887;SDS011;9576;47.792;9.628;2022-08-19T10:02:44;56.33;;;29.10;;
18887;SDS011;9576;47.792;9.628;2022-08-19T10:05:47;55.33;;;29.63;;
18887;SDS011;9576;47.792;9.628;2022-08-19T10:08:51;55.57;;;30.37;;
18887;SDS011;9576;47.792;9.628;2022-08-19T10:11:53;59.53;;;28.15;;
18887;SDS011;9576;47.792;9.628;2022-08-19T10:14:56;68.40;;;31.80;;
18887;SDS011;9576;47.792;9.628;2022-08-19T10:17:58;71.85;;;32.40;;
18887;SDS011;9576;47.792;9.628;2022-08-19T10:21:05;66.78;;;32.75;;
18887;SDS011;9576;47.792;9.628;2022-08-19T10:24:09;66.78;;;33.00;;
18887;SDS011;9576;47.792;9.628;2022-08-19T10:27:11;63.22;;;32.97;;
18887;SDS011;9576;47.792;9.628;2022-08-19T10:30:14;67.22;;;31.27;;
18887;SDS011;9576;47.792;9.628;2022-08-19T10:33:16;66.43;;;33.90;;
18887;SDS011;9576;47.792;9.628;2022-08-19T10:36:20;70.63;;;34.45;;
18887;SDS011;9576;47.792;9.628;2022-08-19T10:39:24;66.55;;;33.22;;
18887;SDS011;9576;47.792;9.628;2022-08-19T10:42:28;72.57;;;34.70;;
18887;SDS011;9576;47.792;9.628;2022-08-19T10:45:31;66.97;;;33.67;;
18887;SDS011;9576;47.792;9.628;2022-08-19T10:48:33;65.63;;;34.20;;
18887;SDS011;9576;47.792;9.628;2022-08-19T10:51:37;64.63;;;32.95;;
18887;SDS011;9576;47.792;9.628;2022-08-19T10:54:57;69.75;;;36.10;;
18887;SDS011;9576;47.792;9.628;2022-08-19T10:58:14;68.90;;;33.15;;
18887;SDS011;9576;47.792;9.628;2022-08-19T11:01:17;64.73;;;33.60;;
18887;SDS011;9576;47.792;9.628;2022-08-19T11:04:19;68.07;;;33.45;;
18887;SDS011;9576;47.792;9.628;2022-08-19T11:07:23;70.53;;;35.50;;
18887;SDS011;9576;47.792;9.628;2022-08-19T11:10:26;62.53;;;33.00;;
18887;SDS011;9576;47.792;9.628;2022-08-19T11:13:28;62.78;;;31.08;;
18887;SDS011;9576;47.792;9.628;2022-08-19T11:16:33;62.10;;;31.45;;
18887;SDS011;9576;47.792;9.628;2022-08-19T11:19:35;53.25;;;28.70;;
18887;SDS011;9576;47.792;9.628;2022-08-19T11:22:39;60.85;;;29.52;;
18887;SDS011;9576;47.792;9.628;2022-08-19T11:25:42;54.33;;;28.85;;
18887;SDS011;9576;47.792;9.628;2022-08-19T11:28:45;52.63;;;27.52;;
18887;SDS011;9576;47.792;9.628;2022-08-19T11:31:49;49.38;;;28.15;;
18887;SDS011;9576;47.792;9.628;2022-08-19T11:34:51;49.65;;;27.25;;
18887;SDS011;9576;47.792;9.628;2022-08-19T11:37:55;60.05;;;30.65;;
18887;SDS011;9576;47.792;9.628;2022-08-19T11:41:02;50.97;;;27.60;;
18887;SDS011;9576;47.792;9.628;2022-08-19T11:44:07;50.95;;;28.05;;
18887;SDS011;9576;47.792;9.628;2022-08-19T11:47:10;52.42;;;27.17;;
18887;SDS011;9576;47.792;9.628;2022-08-19T11:50:13;52.17;;;27.35;;
18887;SDS011;9576;47.792;9.628;2022-08-19T11:53:17;48.97;;;29.15;;
18887;SDS011;9576;47.792;9.628;2022-08-19T11:56:20;47.85;;;27.05;;
18887;SDS011;9576;47.792;9.628;2022-08-19T11:59:22;41.72;;;25.85;;
18887;SDS011;9576;47.792;9.628;2022-08-19T12:02:26;46.17;;;26.90;;
18887;SDS011;9576;47.792;9.628;2022-08-19T12:05:28;43.10;;;23.85;;
18887;SDS011;9576;47.792;9.628;2022-08-19T12:08:32;43.92;;;24.77;;
18887;SDS011;9576;47.792;9.628;2022-08-19T12:11:35;46.58;;;24.80;;
18887;SDS011;9576;47.792;9.628;2022-08-19T12:14:38;42.45;;;23.40;;
18887;SDS011;9576;47.792;9.628;2022-08-19T12:17:40;40.92;;;23.20;;
18887;SDS011;9576;47.792;9.628;2022-08-19T12:20:43;37.03;;;21.58;;
18887;SDS011;9576;47.792;9.628;2022-08-19T12:23:47;40.28;;;22.10;;
18887;SDS011;9576;47.792;9.628;2022-08-19T12:26:51;38.25;;;22.48;;
18887;SDS011;9576;47.792;9.628;2022-08-19T12:29:55;40.30;;;21.90;;
18887;SDS011;9576;47.792;9.628;2022-08-19T12:32:58;39.45;;;22.35;;
18887;SDS011;9576;47.792;9.628;2022-08-19T12:36:01;40.63;;;21.17;;
18887;SDS011;9576;47.792;9.628;2022-08-19T12:39:05;40.58;;;22.45;;
18887;SDS011;9576;47.792;9.628;2022-08-19T12:42:08;31.50;;;18.70;;
18887;SDS011;9576;47.792;9.628;2022-08-19T12:45:12;31.42;;;17.13;;
18887;SDS011;9576;47.792;9.628;2022-08-19T12:48:14;30.08;;;17.90;;
18887;SDS011;9576;47.792;9.628;2022-08-19T12:51:17;29.73;;;17.98;;
18887;SDS011;9576;47.792;9.628;2022-08-19T12:54:21;30.45;;;17.65;;
18887;SDS011;9576;47.792;9.628;2022-08-19T12:57:25;29.80;;;16.60;;
18887;SDS011;9576;47.792;9.628;2022-08-19T13:00:29;26.67;;;16.95;;
18887;SDS011;9576;47.792;9.628;2022-08-19T13:03:32;33.05;;;13.75;;
18887;SDS011;9576;47.792;9.628;2022-08-19T13:06:35;25.10;;;15.05;;
18887;SDS011;9576;47.792;9.628;2022-08-19T13:09:38;24.02;;;16.00;;
18887;SDS011;9576;47.792;9.628;2022-08-19T13:12:42;25.33;;;15.13;;
18887;SDS011;9576;47.792;9.628;2022-08-19T13:15:44;22.48;;;14.82;;
18887;SDS011;9576;47.792;9.628;2022-08-19T13:18:47;24.80;;;13.45;;
18887;SDS011;9576;47.792;9.628;2022-08-19T13:21:50;24.45;;;14.18;;
18887;SDS011;9576;47.792;9.628;2022-08-19T13:24:55;23.98;;;14.82;;
18887;SDS011;9576;47.792;9.628;2022-08-19T13:27:57;25.48;;;15.88;;
18887;SDS011;9576;47.792;9.628;2022-08-19T13:31:00;26.55;;;15.00;;
18887;SDS011;9576;47.792;9.628;2022-08-19T13:34:25;22.10;;;12.98;;
18887;SDS011;9576;47.792;9.628;2022-08-19T13:37:29;21.85;;;14.15;;
18887;SDS011;9576;47.792;9.628;2022-08-19T13:40:46;20.83;;;13.32;;
18887;SDS011;9576;47.792;9.628;2022-08-19T13:43:50;23.33;;;11.88;;
18887;SDS011;9576;47.792;9.628;2022-08-19T13:46:52;24.60;;;12.27;;
18887;SDS011;9576;47.792;9.628;2022-08-19T13:49:54;22.33;;;12.40;;
18887;SDS011;9576;47.792;9.628;2022-08-19T13:52:56;19.08;;;10.90;;
18887;SDS011;9576;47.792;9.628;2022-08-19T13:56:00;19.63;;;12.10;;
18887;SDS011;9576;47.792;9.628;2022-08-19T13:59:07;17.27;;;12.32;;
18887;SDS011;9576;47.792;9.628;2022-08-19T14:02:09;16.90;;;12.40;;
18887;SDS011;9576;47.792;9.628;2022-08-19T14:05:12;21.25;;;11.27;;
18887;SDS011;9576;47.792;9.628;2022-08-19T14:08:16;19.05;;;11.10;;
18887;SDS011;9576;47.792;9.628;2022-08-19T14:11:19;18.17;;;11.82;;
18887;SDS011;9576;47.792;9.628;2022-08-19T14:14:22;17.42;;;12.00;;
18887;SDS011;9576;47.792;9.628;2022-08-19T14:17:25;21.02;;;12.27;;
18887;SDS011;9576;47.792;9.628;2022-08-19T14:20:27;27.10;;;12.68;;
18887;SDS011;9576;47.792;9.628;2022-08-19T14:23:29;21.17;;;13.18;;
18887;SDS011;9576;47.792;9.628;2022-08-19T14:26:33;23.92;;;14.90;;
18887;SDS011;9576;47.792;9.628;2022-08-19T14:29:35;21.25;;;13.23;;
18887;SDS011;9576;47.792;9.628;2022-08-19T14:32:38;20.55;;;12.90;;
18887;SDS011;9576;47.792;9.628;2022-08-19T14:35:40;23.52;;;14.77;;
18887;SDS011;9576;47.792;9.628;2022-08-19T14:41:48;30.45;;;13.38;;
18887;SDS011;9576;47.792;9.628;2022-08-19T14:44:50;21.15;;;14.52;;
18887;SDS011;9576;47.792;9.628;2022-08-19T14:47:52;24.38;;;15.18;;
18887;SDS011;9576;47.792;9.628;2022-08-19T14:50:54;21.55;;;14.98;;
18887;SDS011;9576;47.792;9.628;2022-08-19T14:53:57;26.48;;;15.60;;
18887;SDS011;9576;47.792;9.628;2022-08-19T14:57:01;24.35;;;15.38;;
18887;SDS011;9576;47.792;9.628;2022-08-19T15:00:04;30.20;;;17.42;;
18887;SDS011;9576;47.792;9.628;2022-08-19T15:03:07;24.30;;;17.13;;
18887;SDS011;9576;47.792;9.628;2022-08-19T15:06:09;25.95;;;15.90;;
18887;SDS011;9576;47.792;9.628;2022-08-19T15:09:11;27.45;;;16.92;;
18887;SDS011;9576;47.792;9.628;2022-08-19T15:12:15;22.08;;;16.15;;
18887;SDS011;9576;47.792;9.628;2022-08-19T15:15:17;26.92;;;16.48;;
18887;SDS011;9576;47.792;9.628;2022-08-19T15:18:20;30.35;;;16.45;;
18887;SDS011;9576;47.792;9.628;2022-08-19T15:21:23;38.95;;;17.52;;
18887;SDS011;9576;47.792;9.628;2022-08-19T15:24:25;25.48;;;17.15;;
18887;SDS011;9576;47.792;9.628;2022-08-19T15:27:29;28.05;;;16.75;;
18887;SDS011;9576;47.792;9.628;2022-08-19T15:30:31;25.30;;;17.38;;
18887;SDS011;9576;47.792;9.628;2022-08-19T15:33:34;37.95;;;22.38;;
18887;SDS011;9576;47.792;9.628;2022-08-19T15:36:37;38.47;;;22.93;;
18887;SDS011;9576;47.792;9.628;2022-08-19T15:39:39;37.00;;;22.77;;
18887;SDS011;9576;47.792;9.628;2022-08-19T15:42:43;48.80;;;26.05;;
18887;SDS011;9576;47.792;9.628;2022-08-19T15:45:45;46.75;;;27.65;;
18887;SDS011;9576;47.792;9.628;2022-08-19T15:48:48;46.35;;;28.55;;
18887;SDS011;9576;47.792;9.628;2022-08-19T15:51:51;44.00;;;27.13;;
18887;SDS011;9576;47.792;9.628;2022-08-19T15:54:53;49.35;;;30.02;;
18887;SDS011;9576;47.792;9.628;2022-08-19T15:57:57;46.30;;;27.27;;
18887;SDS011;9576;47.792;9.628;2022-08-19T16:01:16;40.75;;;25.25;;
18887;SDS011;9576;47.792;9.628;2022-08-19T16:04:36;47.42;;;27.00;;
18887;SDS011;9576;47.792;9.628;2022-08-19T16:08:04;47.08;;;27.92;;
18887;SDS011;9576;47.792;9.628;2022-08-19T16:11:09;55.05;;;27.15;;
18887;SDS011;9576;47.792;9.628;2022-08-19T16:14:14;48.13;;;27.20;;
18887;SDS011;9576;47.792;9.628;2022-08-19T16:17:16;49.97;;;26.92;;
18887;SDS011;9576;47.792;9.628;2022-08-19T16:20:19;47.65;;;28.25;;
18887;SDS011;9576;47.792;9.628;2022-08-19T16:23:22;48.22;;;26.67;;
18887;SDS011;9576;47.792;9.628;2022-08-19T16:26:24;51.65;;;28.40;;
18887;SDS011;9576;47.792;9.628;2022-08-19T16:29:31;50.25;;;29.30;;
18887;SDS011;9576;47.792;9.628;2022-08-19T16:32:35;50.08;;;28.73;;
18887;SDS011;9576;47.792;9.628;2022-08-19T16:35:37;45.10;;;29.42;;
18887;SDS011;9576;47.792;9.628;2022-08-19T16:38:39;58.65;;;30.88;;
18887;SDS011;9576;47.792;9.628;2022-08-19T16:41:44;44.03;;;27.27;;
18887;SDS011;9576;47.792;9.628;2022-08-19T16:44:48;52.75;;;28.40;;
18887;SDS011;9576;47.792;9.628;2022-08-19T16:47:50;48.87;;;28.17;;
18887;SDS011;9576;47.792;9.628;2022-08-19T16:50:52;49.10;;;26.70;;
18887;SDS011;9576;47.792;9.628;2022-08-19T16:53:54;47.13;;;28.15;;
18887;SDS011;9576;47.792;9.628;2022-08-19T16:56:57;48.97;;;28.23;;
18887;SDS011;9576;47.792;9.628;2022-08-19T17:00:00;43.83;;;26.45;;
18887;SDS011;9576;47.792;9.628;2022-08-19T17:03:07;48.15;;;30.02;;
18887;SDS011;9576;47.792;9.628;2022-08-19T17:06:11;54.83;;;30.95;;
18887;SDS011;9576;47.792;9.628;2022-08-19T17:09:14;49.47;;;30.03;;
18887;SDS011;9576;47.792;9.628;2022-08-19T17:12:17;57.08;;;33.33;;
18887;SDS011;9576;47.792;9.628;2022-08-19T17:15:21;54.35;;;31.50;;
18887;SDS011;9576;47.792;9.628;2022-08-19T17:18:23;54.97;;;33.80;;
18887;SDS011;9576;47.792;9.628;2022-08-19T17:21:27;62.03;;;36.17;;
18887;SDS011;9576;47.792;9.628;2022-08-19T17:24:31;78.93;;;43.92;;
18887;SDS011;9576;47.792;9.628;2022-08-19T17:27:33;63.85;;;37.63;;
18887;SDS011;9576;47.792;9.628;2022-08-19T17:30:36;62.90;;;37.50;;
18887;SDS011;9576;47.792;9.628;2022-08-19T17:33:39;71.93;;;37.28;;
18887;SDS011;9576;47.792;9.628;2022-08-19T17:36:41;65.50;;;37.63;;
18887;SDS011;9576;47.792;9.628;2022-08-19T17:39:43;66.30;;;38.17;;
18887;SDS011;9576;47.792;9.628;2022-08-19T17:42:45;61.30;;;36.63;;
18887;SDS011;9576;47.792;9.628;2022-08-19T17:45:49;63.33;;;36.80;;
18887;SDS011;9576;47.792;9.628;2022-08-19T17:48:51;63.00;;;36.20;;
18887;SDS011;9576;47.792;9.628;2022-08-19T17:51:56;70.32;;;37.33;;
18887;SDS011;9576;47.792;9.628;2022-08-19T17:54:59;70.43;;;37.60;;
18887;SDS011;9576;47.792;9.628;2022-08-19T17:58:02;68.95;;;37.67;;
18887;SDS011;9576;47.792;9.628;2022-08-19T18:01:08;67.82;;;36.22;;
18887;SDS011;9576;47.792;9.628;2022-08-19T18:04:11;67.63;;;37.65;;
18887;SDS011;9576;47.792;9.628;2022-08-19T18:07:14;68.80;;;36.67;;
18887;SDS011;9576;47.792;9.628;2022-08-19T18:10:18;71.63;;;35.78;;
18887;SDS011;9576;47.792;9.628;2022-08-19T18:13:21;80.75;;;41.63;;
18887;SDS011;9576;47.792;9.628;2022-08-19T18:16:25;78.97;;;40.28;;
18887;SDS011;9576;47.792;9.628;2022-08-19T18:19:28;89.18;;;43.10;;
18887;SDS011;9576;47.792;9.628;2022-08-19T18:22:31;81.75;;;41.33;;